Time;durP1;ratioP1;P1;durP2;ratioP2;P2;SDS_P1;SDS_P2;PMS_P1;PMS_P2;Temp;Humidity;BMP_temperature;BMP_pressure;BME280_temperature;BME280_humidity;BME280_pressure;Samples;Min_cycle;Max_cycle;Signal;HPM_P1;HPM_P2
2022/04/20 00:00:36;;;;;;;4.93;2.53;;;8.50;98.30;;;;;;5034618;28;20056;-74
2022/04/20 00:03:03;;;;;;;6.50;2.90;;;8.50;98.30;;;;;;5017818;28;20493;-74
2022/04/20 00:05:33;;;;;;;5.18;2.47;;;8.40;98.30;;;;;;5024570;28;20053;-75
2022/04/20 00:08:03;;;;;;;5.25;2.70;;;8.40;98.30;;;;;;5046849;28;20495;-74
2022/04/20 00:10:29;;;;;;;4.32;2.53;;;8.40;98.50;;;;;;5041844;28;20092;-75
2022/04/20 00:12:56;;;;;;;4.82;2.90;;;8.40;98.50;;;;;;5030525;28;20103;-74
2022/04/20 00:15:22;;;;;;;5.20;2.70;;;8.30;98.50;;;;;;5028271;28;20072;-74
2022/04/20 00:17:48;;;;;;;3.95;2.67;;;8.30;98.50;;;;;;5018062;28;20113;-75
2022/04/20 00:20:14;;;;;;;6.75;2.75;;;8.30;98.40;;;;;;5026938;28;20048;-75
2022/04/20 00:22:39;;;;;;;9.07;2.83;;;8.20;98.40;;;;;;5038239;28;20029;-74
2022/04/20 00:25:05;;;;;;;4.28;2.90;;;8.20;98.60;;;;;;5033813;28;20042;-75
2022/04/20 00:27:38;;;;;;;8.40;3.03;;;8.20;98.70;;;;;;5024246;28;20068;-74
2022/04/20 00:30:06;;;;;;;5.35;2.58;;;8.20;98.70;;;;;;5016015;28;20432;-74
2022/04/20 00:32:32;;;;;;;6.68;2.85;;;8.10;98.80;;;;;;5035730;28;20044;-74
2022/04/20 00:34:57;;;;;;;7.22;3.22;;;8.20;98.80;;;;;;5041673;28;20051;-74
2022/04/20 00:37:23;;;;;;;6.13;2.90;;;8.10;98.80;;;;;;5021456;28;20404;-75
2022/04/20 00:39:49;;;;;;;4.80;2.80;;;8.10;98.80;;;;;;5034155;28;20050;-74
2022/04/20 00:42:15;;;;;;;5.47;3.22;;;8.00;98.80;;;;;;5033395;28;20041;-74
2022/04/20 00:44:41;;;;;;;7.03;3.42;;;8.00;98.70;;;;;;5044190;28;20045;-74
2022/04/20 00:47:09;;;;;;;5.22;2.92;;;8.00;98.70;;;;;;5011671;28;20045;-74
2022/04/20 00:49:38;;;;;;;9.60;3.50;;;8.00;98.60;;;;;;5036320;28;20056;-74
2022/04/20 00:52:06;;;;;;;8.50;3.30;;;8.00;98.60;;;;;;5040389;28;20045;-74
2022/04/20 00:54:32;;;;;;;5.85;3.30;;;8.00;98.50;;;;;;5012229;28;20160;-73
2022/04/20 00:56:58;;;;;;;9.43;3.65;;;8.00;98.40;;;;;;5011028;28;20144;-74
2022/04/20 00:59:29;;;;;;;5.43;3.47;;;8.00;98.40;;;;;;5040613;28;20115;-74
2022/04/20 01:01:55;;;;;;;5.85;2.75;;;8.00;98.20;;;;;;5050548;28;20116;-77
2022/04/20 01:04:21;;;;;;;4.97;3.10;;;8.00;98.10;;;;;;5038660;28;20132;-74
2022/04/20 01:06:49;;;;;;;5.28;2.72;;;8.00;98.10;;;;;;5055208;28;20040;-74
2022/04/20 01:09:15;;;;;;;6.60;3.40;;;8.00;98.10;;;;;;5044135;28;20518;-75
2022/04/20 01:11:41;;;;;;;7.47;3.08;;;8.00;98.20;;;;;;5032215;28;20045;-76
2022/04/20 01:14:08;;;;;;;4.88;2.65;;;7.90;98.20;;;;;;5049963;28;20087;-77
2022/04/20 01:16:34;;;;;;;8.18;3.45;;;8.00;98.20;;;;;;5051337;28;20453;-76
2022/04/20 01:19:01;;;;;;;4.10;2.65;;;8.00;98.20;;;;;;5057923;28;20048;-77
2022/04/20 01:21:27;;;;;;;5.60;3.25;;;8.00;98.20;;;;;;5035779;28;20052;-75
2022/04/20 01:23:53;;;;;;;8.30;3.28;;;8.00;98.10;;;;;;5040719;28;20075;-75
2022/04/20 01:26:19;;;;;;;10.43;4.07;;;8.00;98.20;;;;;;5054631;28;20452;-75
2022/04/20 01:28:46;;;;;;;6.72;2.78;;;8.00;98.10;;;;;;5054804;28;20780;-76
2022/04/20 01:31:16;;;;;;;4.32;2.78;;;8.00;98.20;;;;;;5067527;28;20049;-76
2022/04/20 01:33:43;;;;;;;6.72;3.05;;;8.00;98.10;;;;;;5046071;28;20056;-74
2022/04/20 01:36:10;;;;;;;5.07;3.38;;;8.00;98.20;;;;;;5061115;28;20078;-74
2022/04/20 01:38:37;;;;;;;6.72;3.25;;;8.00;98.30;;;;;;5067407;28;20115;-74
2022/04/20 01:41:03;;;;;;;6.38;3.00;;;8.00;98.30;;;;;;5059106;28;20411;-74
2022/04/20 01:43:28;;;;;;;5.25;3.22;;;8.00;98.40;;;;;;5034355;28;20048;-74
2022/04/20 01:45:54;;;;;;;4.85;2.88;;;8.00;98.60;;;;;;5049235;28;20071;-74
2022/04/20 01:48:19;;;;;;;10.13;3.42;;;8.00;98.70;;;;;;5037002;28;20049;-74
2022/04/20 01:53:30;;;;;;;5.90;2.55;;;8.00;98.70;;;;;;5058570;28;20036;-74
2022/04/20 01:55:56;;;;;;;6.65;3.60;;;8.00;98.70;;;;;;5033075;28;20037;-74
2022/04/20 01:58:22;;;;;;;5.50;3.05;;;8.00;98.60;;;;;;5060280;28;20037;-76
2022/04/20 02:00:47;;;;;;;5.15;3.20;;;8.00;98.70;;;;;;5041754;28;20493;-74
2022/04/20 02:03:13;;;;;;;6.03;3.03;;;8.00;98.80;;;;;;5034416;28;20484;-75
2022/04/20 02:05:39;;;;;;;5.28;3.10;;;8.00;98.90;;;;;;5055737;28;20048;-74
2022/04/20 02:08:05;;;;;;;9.93;2.95;;;8.00;99.00;;;;;;5044948;28;20078;-77
2022/04/20 02:10:31;;;;;;;8.68;3.40;;;8.00;99.10;;;;;;5035673;28;20186;-76
2022/04/20 02:12:56;;;;;;;6.65;3.60;;;8.00;99.30;;;;;;5060100;28;20439;-76
2022/04/20 02:15:22;;;;;;;8.43;3.10;;;8.00;99.30;;;;;;5042064;28;20395;-76
2022/04/20 02:17:48;;;;;;;5.97;3.40;;;7.90;99.20;;;;;;5065104;28;20133;-75
2022/04/20 02:20:14;;;;;;;6.82;3.42;;;7.90;99.30;;;;;;5060298;28;20075;-77
2022/04/20 02:22:40;;;;;;;6.78;3.10;;;7.90;99.20;;;;;;5040753;28;20071;-74
2022/04/20 02:25:07;;;;;;;4.82;2.90;;;7.90;99.60;;;;;;5067845;28;20050;-77
2022/04/20 02:27:32;;;;;;;4.82;2.88;;;7.90;99.50;;;;;;5053924;28;20037;-74
2022/04/20 02:29:58;;;;;;;5.07;2.90;;;7.90;99.50;;;;;;5049911;28;20136;-74
2022/04/20 02:32:24;;;;;;;5.63;2.95;;;7.90;99.50;;;;;;5035417;28;20040;-75
2022/04/20 02:34:50;;;;;;;6.43;2.92;;;7.90;99.60;;;;;;5049673;28;20044;-76
2022/04/20 02:37:16;;;;;;;5.43;2.72;;;7.90;99.60;;;;;;5029760;28;20084;-74
2022/04/20 02:39:43;;;;;;;4.70;3.20;;;7.90;99.60;;;;;;5061400;28;20045;-74
2022/04/20 02:42:09;;;;;;;6.60;3.17;;;7.80;99.70;;;;;;5029941;28;20554;-74
2022/04/20 02:44:36;;;;;;;6.38;3.60;;;7.80;99.80;;;;;;5037368;28;20040;-74
2022/04/20 02:47:03;;;;;;;6.47;3.15;;;7.90;99.90;;;;;;5048264;28;20538;-74
2022/04/20 02:49:29;;;;;;;6.07;3.30;;;7.80;99.90;;;;;;5061017;28;20036;-74
2022/04/20 02:51:55;;;;;;;6.20;3.80;;;7.90;99.90;;;;;;5035524;28;20098;-74
2022/04/20 02:54:21;;;;;;;5.90;3.05;;;7.80;99.90;;;;;;5064993;28;20056;-74
2022/04/20 02:56:47;;;;;;;6.22;3.15;;;7.80;99.90;;;;;;5039409;28;20537;-74
2022/04/20 02:59:13;;;;;;;4.07;2.90;;;7.80;99.90;;;;;;5058569;28;20491;-74
2022/04/20 03:01:38;;;;;;;6.60;2.83;;;7.80;99.90;;;;;;5052867;28;20070;-74
2022/04/20 03:04:04;;;;;;;6.68;3.10;;;7.80;99.90;;;;;;5057698;28;20110;-77
2022/04/20 03:06:30;;;;;;;5.40;2.55;;;7.80;99.90;;;;;;5064465;28;20047;-74
2022/04/20 03:08:56;;;;;;;9.20;2.65;;;7.80;99.90;;;;;;5064128;28;20119;-75
2022/04/20 03:11:22;;;;;;;5.38;3.28;;;7.80;99.90;;;;;;5062995;28;20045;-74
2022/04/20 03:13:48;;;;;;;6.05;3.70;;;7.70;99.90;;;;;;5043005;28;20045;-75
2022/04/20 03:16:15;;;;;;;7.30;3.28;;;7.70;99.90;;;;;;5039247;28;20044;-74
2022/04/20 03:18:40;;;;;;;5.35;3.17;;;7.70;99.90;;;;;;5057365;28;20698;-75
2022/04/20 03:21:09;;;;;;;7.72;3.47;;;7.70;99.90;;;;;;5060638;28;20113;-74
2022/04/20 03:23:41;;;;;;;6.10;3.65;;;7.70;99.90;;;;;;5055163;28;20492;-75
2022/04/20 03:26:07;;;;;;;8.80;3.88;;;7.70;99.90;;;;;;5051372;28;20044;-75
2022/04/20 03:28:33;;;;;;;8.27;4.40;;;7.70;99.90;;;;;;5044803;28;20048;-75
2022/04/20 03:30:59;;;;;;;4.93;3.25;;;7.90;99.90;;;;;;5037620;28;20125;-74
2022/04/20 03:33:25;;;;;;;6.00;3.08;;;7.60;99.90;;;;;;5035041;28;20049;-75
2022/04/20 03:35:51;;;;;;;9.50;4.05;;;7.60;99.90;;;;;;5066374;28;20033;-75
2022/04/20 03:38:17;;;;;;;6.53;3.63;;;7.50;99.90;;;;;;5047936;28;20077;-75
2022/04/20 03:40:42;;;;;;;6.40;3.75;;;7.50;99.90;;;;;;5065952;28;20065;-75
2022/04/20 03:43:08;;;;;;;6.65;3.90;;;7.50;99.90;;;;;;5042237;28;20480;-74
2022/04/20 03:45:34;;;;;;;5.82;3.80;;;7.40;99.90;;;;;;5068092;28;20520;-77
2022/04/20 03:47:59;;;;;;;7.40;4.20;;;7.40;99.90;;;;;;5061701;28;20037;-75
2022/04/20 03:50:25;;;;;;;6.50;3.88;;;7.40;99.90;;;;;;5051458;28;20132;-74
2022/04/20 03:52:51;;;;;;;9.25;3.80;;;7.30;99.90;;;;;;5039094;28;20397;-77
2022/04/20 03:55:17;;;;;;;7.53;4.07;;;7.30;99.90;;;;;;5080641;28;20044;-75
2022/04/20 03:57:43;;;;;;;7.65;3.70;;;7.30;99.90;;;;;;5048367;28;20044;-75
2022/04/20 04:00:09;;;;;;;8.70;3.85;;;7.20;99.90;;;;;;5056153;28;20052;-74
2022/04/20 04:02:34;;;;;;;6.50;3.67;;;7.10;99.90;;;;;;5033839;28;20072;-74
2022/04/20 04:05:00;;;;;;;7.85;3.83;;;7.10;99.90;;;;;;5057848;28;20036;-75
2022/04/20 04:07:26;;;;;;;7.38;3.80;;;7.00;99.90;;;;;;5056964;28;20043;-74
2022/04/20 04:09:51;;;;;;;6.85;3.85;;;7.00;99.90;;;;;;5055681;28;20062;-75
2022/04/20 04:12:24;;;;;;;6.13;3.58;;;7.20;99.90;;;;;;5049294;28;20056;-75
2022/04/20 04:14:49;;;;;;;8.65;3.60;;;6.90;99.90;;;;;;5035786;28;20116;-75
2022/04/20 04:17:15;;;;;;;5.38;3.70;;;6.80;99.90;;;;;;5032307;28;20149;-75
2022/04/20 04:19:41;;;;;;;6.15;3.60;;;6.80;99.90;;;;;;5059821;28;20131;-76
2022/04/20 04:22:06;;;;;;;6.57;3.60;;;6.80;99.90;;;;;;5054577;28;20063;-75
2022/04/20 04:24:34;;;;;;;6.03;3.58;;;6.80;99.90;;;;;;5065944;28;20476;-76
2022/04/20 04:27:02;;;;;;;7.75;3.35;;;6.70;99.90;;;;;;5044483;28;20127;-75
2022/04/20 04:29:28;;;;;;;6.20;3.22;;;6.70;99.90;;;;;;5071945;28;20489;-75
2022/04/20 04:31:55;;;;;;;6.97;3.45;;;7.00;99.90;;;;;;5045065;28;20048;-76
2022/04/20 04:34:20;;;;;;;6.07;3.97;;;6.60;99.90;;;;;;5043305;28;20068;-76
2022/04/20 04:36:46;;;;;;;6.35;3.33;;;6.60;99.90;;;;;;5052372;28;20134;-75
2022/04/20 04:39:14;;;;;;;6.03;3.35;;;6.60;99.90;;;;;;5051505;28;20040;-75
2022/04/20 04:41:42;;;;;;;6.18;3.95;;;6.50;99.90;;;;;;5045215;28;20507;-75
2022/04/20 04:44:08;;;;;;;6.38;3.42;;;6.50;99.90;;;;;;5034632;28;20437;-75
2022/04/20 04:49:17;;;;;;;6.85;3.20;;;6.50;99.90;;;;;;5057506;28;20041;-76
2022/04/20 04:51:43;;;;;;;6.72;3.75;;;6.50;99.90;;;;;;5051191;28;20044;-76
2022/04/20 04:54:09;;;;;;;5.05;3.47;;;6.50;99.90;;;;;;5050229;28;20041;-76
2022/04/20 04:56:35;;;;;;;7.32;3.92;;;6.50;99.90;;;;;;5056366;28;20060;-76
2022/04/20 04:59:00;;;;;;;8.18;3.50;;;6.50;99.90;;;;;;5056304;28;20056;-76
2022/04/20 05:01:27;;;;;;;6.75;3.63;;;6.10;99.90;;;;;;5057055;28;20495;-76
2022/04/20 05:03:53;;;;;;;9.00;3.42;;;6.40;99.90;;;;;;5061586;28;20041;-75
2022/04/20 05:06:19;;;;;;;5.60;3.60;;;6.50;99.90;;;;;;5033734;28;20041;-74
2022/04/20 05:08:45;;;;;;;5.60;3.58;;;6.50;99.90;;;;;;5041937;28;20580;-74
2022/04/20 05:11:10;;;;;;;5.88;3.55;;;6.50;99.90;;;;;;5055384;28;20037;-77
2022/04/20 05:13:36;;;;;;;5.47;3.47;;;6.50;99.90;;;;;;5056595;28;20037;-75
2022/04/20 05:16:02;;;;;;;6.47;3.50;;;6.50;99.90;;;;;;5053570;28;20047;-75
2022/04/20 05:18:27;;;;;;;6.85;3.80;;;6.50;99.90;;;;;;5032657;28;20430;-75
2022/04/20 05:20:53;;;;;;;5.25;3.20;;;6.50;99.90;;;;;;5060707;28;20031;-75
2022/04/20 05:23:18;;;;;;;7.57;3.38;;;6.50;99.90;;;;;;5041070;28;20048;-75
2022/04/20 05:25:44;;;;;;;7.00;3.92;;;6.50;99.90;;;;;;5052236;28;20055;-75
2022/04/20 05:28:10;;;;;;;7.22;3.97;;;6.50;99.90;;;;;;5058442;28;20123;-76
2022/04/20 05:30:36;;;;;;;6.30;3.80;;;6.60;99.90;;;;;;5076933;28;20124;-76
2022/04/20 05:33:02;;;;;;;6.13;3.15;;;6.60;99.90;;;;;;5048307;28;20059;-76
2022/04/20 05:35:28;;;;;;;11.85;3.55;;;6.70;99.90;;;;;;5053447;28;20052;-76
2022/04/20 05:43:22;;;;;;;5.95;3.42;;;6.80;99.90;;;;;;5059889;28;20445;-76
2022/04/20 05:45:50;;;;;;;9.07;3.90;;;6.80;99.90;;;;;;5035047;28;20151;-76
2022/04/20 05:48:16;;;;;;;8.57;3.53;;;6.90;99.90;;;;;;5032045;28;20183;-76
2022/04/20 05:50:43;;;;;;;6.18;3.40;;;6.90;99.90;;;;;;5037986;28;20127;-75
2022/04/20 05:53:09;;;;;;;6.80;3.78;;;7.00;99.90;;;;;;5051097;28;20370;-76
2022/04/20 05:55:34;;;;;;;5.95;3.10;;;7.10;99.90;;;;;;5065645;28;20055;-76
2022/04/20 05:58:00;;;;;;;11.60;3.67;;;7.10;99.90;;;;;;5032136;28;20056;-76
2022/04/20 06:00:25;;;;;;;8.38;4.13;;;7.20;99.90;;;;;;5038450;28;20045;-76
2022/04/20 06:02:52;;;;;;;8.57;3.80;;;7.30;99.90;;;;;;5034408;28;20071;-75
2022/04/20 06:05:18;;;;;;;10.18;3.30;;;7.30;99.90;;;;;;5055692;28;20385;-75
2022/04/20 06:07:43;;;;;;;5.05;3.03;;;7.40;99.90;;;;;;5061663;28;20055;-75
2022/04/20 06:10:09;;;;;;;7.25;3.30;;;7.50;99.90;;;;;;5034897;28;20087;-75
2022/04/20 06:12:35;;;;;;;7.38;3.80;;;7.60;99.90;;;;;;5056566;28;20156;-75
2022/04/20 06:15:00;;;;;;;5.32;3.35;;;7.60;99.90;;;;;;5054660;28;20110;-75
2022/04/20 06:17:26;;;;;;;6.40;3.58;;;7.70;99.90;;;;;;5029289;28;20104;-75
2022/04/20 06:19:52;;;;;;;6.70;3.50;;;7.80;99.90;;;;;;5030581;28;20480;-75
2022/04/20 06:22:17;;;;;;;6.88;4.00;;;7.80;99.90;;;;;;5048324;28;20045;-75
2022/04/20 06:24:43;;;;;;;6.40;3.60;;;7.90;99.90;;;;;;5030067;28;20076;-74
2022/04/20 06:27:08;;;;;;;11.32;4.00;;;8.00;99.90;;;;;;5048617;28;20059;-74
2022/04/20 06:29:35;;;;;;;5.68;3.42;;;8.10;99.90;;;;;;5030477;28;20083;-74
2022/04/20 06:32:01;;;;;;;6.25;3.50;;;8.10;99.90;;;;;;5030276;28;20214;-73
2022/04/20 06:34:27;;;;;;;6.50;3.70;;;8.20;99.90;;;;;;5048702;28;20045;-72
2022/04/20 06:36:52;;;;;;;7.28;3.72;;;8.30;99.90;;;;;;5050373;28;20601;-73
2022/04/20 06:39:18;;;;;;;5.28;3.67;;;8.40;99.90;;;;;;5030054;28;20049;-73
2022/04/20 06:41:43;;;;;;;7.38;3.92;;;8.40;99.90;;;;;;5030843;28;20060;-74
2022/04/20 06:44:09;;;;;;;7.03;3.85;;;8.50;99.90;;;;;;5049057;28;20056;-76
2022/04/20 06:46:34;;;;;;;6.70;3.80;;;8.60;99.90;;;;;;5030797;28;20377;-74
2022/04/20 06:49:00;;;;;;;6.15;4.05;;;8.70;99.90;;;;;;5057425;28;20059;-75
2022/04/20 06:51:26;;;;;;;6.68;4.10;;;8.80;99.90;;;;;;5050117;28;20098;-75
2022/04/20 06:59:20;;;;;;;8.38;3.95;;;9.00;99.90;;;;;;5061212;28;20053;-75
2022/04/20 07:01:46;;;;;;;14.43;4.32;;;9.10;99.90;;;;;;5035865;28;20075;-75
2022/04/20 07:04:12;;;;;;;7.38;3.92;;;9.20;99.90;;;;;;5054693;28;20115;-75
2022/04/20 07:06:38;;;;;;;9.25;3.92;;;9.20;99.90;;;;;;5054543;28;20069;-74
2022/04/20 07:09:03;;;;;;;7.55;4.15;;;9.30;99.90;;;;;;5051080;28;20212;-75
2022/04/20 07:11:29;;;;;;;9.23;4.15;;;9.40;99.90;;;;;;5048132;28;21942;-74
2022/04/20 07:13:56;;;;;;;5.82;3.92;;;9.50;99.90;;;;;;5064849;28;20558;-75
2022/04/20 07:16:21;;;;;;;6.20;3.60;;;9.60;99.90;;;;;;5050134;28;20052;-74
2022/04/20 07:18:47;;;;;;;7.93;3.78;;;9.70;99.90;;;;;;5057468;28;21012;-74
2022/04/20 07:21:13;;;;;;;7.35;3.65;;;9.70;99.90;;;;;;5053954;28;20037;-74
2022/04/20 07:23:38;;;;;;;7.35;3.40;;;9.80;99.90;;;;;;5033201;28;20403;-74
2022/04/20 07:26:04;;;;;;;7.57;3.63;;;10.00;99.90;;;;;;5035061;28;20074;-74
2022/04/20 07:28:31;;;;;;;5.60;3.90;;;10.00;99.90;;;;;;5033236;28;20040;-73
2022/04/20 07:30:57;;;;;;;6.20;3.55;;;10.10;99.90;;;;;;5045745;28;20044;-73
2022/04/20 07:33:24;;;;;;;7.65;3.80;;;10.10;99.90;;;;;;5059074;28;20060;-73
2022/04/20 07:35:50;;;;;;;6.80;3.30;;;10.20;99.90;;;;;;5038074;28;20102;-83
2022/04/20 07:38:15;;;;;;;7.25;4.15;;;10.30;99.90;;;;;;5046598;28;20052;-73
2022/04/20 07:40:41;;;;;;;7.13;3.05;;;10.30;99.90;;;;;;5045421;28;20098;-73
2022/04/20 07:43:07;;;;;;;7.22;3.00;;;10.40;99.90;;;;;;5062634;28;20415;-74
2022/04/20 07:45:33;;;;;;;6.18;2.75;;;10.50;99.90;;;;;;5045173;28;20076;-74
2022/04/20 07:47:58;;;;;;;6.35;2.75;;;10.60;99.90;;;;;;5060200;28;20037;-75
2022/04/20 07:50:25;;;;;;;4.85;2.65;;;10.70;99.90;;;;;;5031174;28;20051;-74
2022/04/20 07:52:56;;;;;;;6.15;2.85;;;10.70;99.60;;;;;;5052286;28;20045;-74
2022/04/20 07:55:27;;;;;;;4.13;2.47;;;10.80;99.30;;;;;;5052782;28;20049;-73
2022/04/20 07:57:55;;;;;;;6.75;2.95;;;10.90;99.10;;;;;;5039671;28;20045;-73
2022/04/20 08:00:22;;;;;;;5.70;2.60;;;11.00;98.50;;;;;;5065342;28;20357;-75
2022/04/20 08:02:49;;;;;;;4.68;2.35;;;11.20;97.90;;;;;;5042099;28;20053;-73
2022/04/20 08:05:16;;;;;;;4.97;2.30;;;11.10;97.40;;;;;;5040844;28;20131;-74
2022/04/20 08:07:43;;;;;;;4.63;2.22;;;11.20;97.20;;;;;;5038277;28;20128;-75
2022/04/20 08:10:10;;;;;;;4.75;2.30;;;11.20;96.40;;;;;;5046370;28;20059;-74
2022/04/20 08:12:37;;;;;;;3.58;2.10;;;11.30;95.80;;;;;;5031509;28;20067;-75
2022/04/20 08:15:04;;;;;;;4.60;2.25;;;11.40;95.40;;;;;;5058162;28;20435;-75
2022/04/20 08:17:30;;;;;;;2.70;1.90;;;11.50;94.40;;;;;;5036274;28;20044;-74
2022/04/20 08:19:56;;;;;;;4.18;2.03;;;11.50;93.60;;;;;;5034353;28;20040;-75
2022/04/20 08:22:25;;;;;;;4.72;2.25;;;11.60;93.30;;;;;;5031648;28;20496;-75
2022/04/20 08:24:54;;;;;;;5.55;2.38;;;11.60;92.70;;;;;;5060729;28;20040;-76
2022/04/20 08:27:20;;;;;;;4.13;2.20;;;11.70;92.80;;;;;;5036267;28;20045;-75
2022/04/20 08:29:47;;;;;;;4.80;2.00;;;11.80;92.00;;;;;;5062128;28;20040;-76
2022/04/20 08:32:16;;;;;;;5.07;2.00;;;11.80;91.70;;;;;;5050110;28;20060;-75
2022/04/20 08:34:43;;;;;;;8.60;1.85;;;11.90;90.80;;;;;;5049521;28;20045;-75
2022/04/20 08:37:12;;;;;;;6.13;1.63;;;11.90;89.50;;;;;;5068914;28;20090;-76
2022/04/20 08:39:40;;;;;;;2.90;1.70;;;12.00;88.60;;;;;;5050681;28;20063;-76
2022/04/20 08:42:07;;;;;;;2.88;1.92;;;12.00;86.90;;;;;;5035727;28;20064;-76
2022/04/20 08:44:37;;;;;;;3.10;1.70;;;12.10;85.40;;;;;;5064040;28;20517;-75
2022/04/20 08:47:04;;;;;;;4.03;1.70;;;12.10;84.50;;;;;;5055741;28;20078;-75
2022/04/20 08:49:31;;;;;;;2.95;1.60;;;12.20;83.40;;;;;;5060026;28;20514;-76
2022/04/20 08:54:43;;;;;;;4.07;1.60;;;12.20;81.20;;;;;;5063342;28;20480;-75
2022/04/20 08:57:15;;;;;;;6.63;2.17;;;12.30;80.70;;;;;;5056150;28;20060;-75
2022/04/20 08:59:43;;;;;;;4.97;1.98;;;12.40;79.60;;;;;;5049025;28;20387;-75
2022/04/20 09:02:11;;;;;;;4.60;1.95;;;12.40;79.30;;;;;;5044783;28;20560;-75
2022/04/20 09:04:36;;;;;;;4.13;1.85;;;12.50;79.50;;;;;;5052070;28;20060;-76
2022/04/20 09:07:03;;;;;;;2.63;1.92;;;12.60;79.50;;;;;;5039068;28;20035;-75
2022/04/20 09:09:30;;;;;;;2.83;1.70;;;12.60;78.30;;;;;;5063196;28;20091;-74
2022/04/20 09:11:59;;;;;;;4.60;2.05;;;12.70;77.20;;;;;;5044183;28;20082;-75
2022/04/20 09:14:28;;;;;;;5.05;1.48;;;12.70;76.50;;;;;;5033672;28;20056;-75
2022/04/20 09:16:57;;;;;;;3.20;1.60;;;12.80;76.50;;;;;;5039371;28;20049;-74
2022/04/20 09:19:26;;;;;;;2.72;1.58;;;12.80;75.10;;;;;;5057242;28;20037;-76
2022/04/20 09:21:52;;;;;;;3.53;1.67;;;12.80;74.50;;;;;;5046803;28;20049;-76
2022/04/20 09:24:18;;;;;;;6.25;2.10;;;12.90;74.00;;;;;;5036675;28;20075;-76
2022/04/20 09:26:54;;;;;;;3.75;1.80;;;13.00;73.40;;;;;;5052329;28;20033;-76
2022/04/20 09:29:21;;;;;;;3.03;1.52;;;13.00;73.00;;;;;;5057768;28;20068;-76
2022/04/20 09:31:48;;;;;;;5.70;2.00;;;13.00;73.50;;;;;;5062628;28;20044;-75
2022/04/20 09:34:29;;;;;;;3.85;2.00;;;13.10;73.20;;;;;;5031093;28;20057;-76
2022/04/20 09:36:57;;;;;;;2.90;1.95;;;13.10;72.50;;;;;;5060296;28;20132;-76
2022/04/20 09:39:25;;;;;;;4.65;1.73;;;13.20;72.00;;;;;;5038447;28;20041;-76
2022/04/20 09:41:59;;;;;;;3.28;2.00;;;13.30;72.20;;;;;;5042056;28;20468;-77
2022/04/20 09:44:25;;;;;;;3.53;1.70;;;13.30;71.50;;;;;;5031779;28;20056;-76
2022/04/20 09:49:50;;;;;;;3.05;1.80;;;13.50;71.30;;;;;;5068935;28;20076;-75
2022/04/20 09:52:16;;;;;;;3.53;1.60;;;13.60;71.60;;;;;;5068111;28;20138;-75
2022/04/20 09:54:53;;;;;;;4.22;2.17;;;13.60;71.30;;;;;;5056805;28;20443;-76
2022/04/20 09:57:20;;;;;;;3.42;1.63;;;13.70;69.50;;;;;;5032406;28;20049;-76
2022/04/20 10:00:10;;;;;;;3.30;1.40;;;13.70;69.20;;;;;;5069335;28;20044;-75
2022/04/20 10:02:50;;;;;;;7.70;1.48;;;13.80;68.70;;;;;;5035990;28;20052;-75
2022/04/20 10:05:17;;;;;;;4.10;1.77;;;13.90;68.50;;;;;;5049291;28;20045;-75
2022/04/20 10:07:43;;;;;;;2.63;1.50;;;14.00;67.80;;;;;;5039598;28;20078;-75
2022/04/20 10:10:09;;;;;;;3.40;1.88;;;14.00;67.50;;;;;;5049952;28;20051;-75
2022/04/20 10:12:41;;;;;;;2.45;1.23;;;14.00;67.40;;;;;;5049609;28;20040;-75
2022/04/20 10:17:54;;;;;;;5.05;1.77;;;14.10;67.20;;;;;;5034063;28;20302;-75
2022/04/20 10:20:20;;;;;;;2.65;1.52;;;14.20;67.10;;;;;;5051072;28;20068;-75
2022/04/20 10:22:47;;;;;;;3.88;1.90;;;14.30;66.10;;;;;;5037816;28;20129;-75
2022/04/20 10:25:13;;;;;;;5.75;1.25;;;14.40;65.10;;;;;;5030678;28;20064;-75
2022/04/20 10:27:51;;;;;;;3.80;1.30;;;14.40;64.70;;;;;;5059290;28;20048;-75
2022/04/20 10:30:24;;;;;;;3.75;1.42;;;14.50;64.20;;;;;;5045905;28;20467;-75
2022/04/20 10:33:09;;;;;;;3.58;1.10;;;14.60;63.40;;;;;;5041776;28;20082;-75
2022/04/20 10:36:00;;;;;;;3.78;1.27;;;14.70;63.50;;;;;;5062126;28;20041;-76
2022/04/20 10:38:30;;;;;;;2.13;1.27;;;14.80;63.10;;;;;;5054319;28;20048;-76
2022/04/20 10:41:13;;;;;;;1.95;1.10;;;14.90;62.80;;;;;;5050497;28;20061;-73
2022/04/20 10:43:42;;;;;;;2.38;1.40;;;15.00;62.30;;;;;;5064704;28;20135;-74
2022/04/20 10:46:15;;;;;;;2.45;1.42;;;15.00;61.60;;;;;;5058603;28;20367;-73
2022/04/20 10:48:45;;;;;;;2.72;1.38;;;15.20;61.50;;;;;;5041059;28;20043;-74
2022/04/20 10:51:14;;;;;;;3.08;1.50;;;15.30;61.60;;;;;;5040757;28;20080;-73
2022/04/20 10:53:48;;;;;;;3.72;1.25;;;15.40;61.40;;;;;;5030181;28;20053;-74
2022/04/20 10:56:14;;;;;;;3.75;1.10;;;15.60;60.60;;;;;;5036301;28;20457;-73
2022/04/20 10:59:05;;;;;;;2.90;1.15;;;15.70;60.80;;;;;;5034274;28;20092;-73
2022/04/20 11:01:31;;;;;;;6.43;1.00;;;15.90;61.00;;;;;;5043358;28;20052;-73
2022/04/20 11:04:04;;;;;;;3.20;1.15;;;16.10;60.80;;;;;;5049139;28;20049;-73
2022/04/20 11:07:12;;;;;;;4.25;0.90;;;16.20;60.30;;;;;;5029352;28;20080;-73
2022/04/20 11:09:48;;;;;;;8.07;1.00;;;16.30;60.40;;;;;;4998221;28;20053;-74
2022/04/20 11:21:09;;;;;;;1.33;0.65;;;17.00;58.90;;;;;;5048847;28;20118;-74
2022/04/20 11:23:50;;;;;;;1.90;0.80;;;17.20;58.60;;;;;;5039766;28;20053;-74
2022/04/20 11:26:28;;;;;;;3.28;1.27;;;17.50;57.60;;;;;;5051019;28;20090;-73
2022/04/20 11:28:55;;;;;;;3.80;1.10;;;17.40;57.30;;;;;;5054838;28;20032;-74
2022/04/20 11:31:21;;;;;;;7.00;1.00;;;17.50;57.10;;;;;;5041566;28;20065;-74
2022/04/20 11:33:47;;;;;;;1.60;0.90;;;17.60;57.00;;;;;;5038172;28;20059;-74
2022/04/20 11:36:16;;;;;;;1.70;0.98;;;17.70;56.60;;;;;;5042192;28;20352;-74
2022/04/20 11:38:44;;;;;;;7.68;1.00;;;17.90;56.60;;;;;;5049841;28;20432;-73
2022/04/20 11:41:16;;;;;;;2.00;0.63;;;17.90;56.50;;;;;;5064536;28;20071;-75
2022/04/20 11:43:41;;;;;;;;;;;18.10;56.10;;;;;;5043381;28;20463;-74
2022/04/20 11:46:07;;;;;;;3.33;0.80;;;18.20;56.00;;;;;;5060967;28;19940;-75
2022/04/20 11:48:38;;;;;;;1.65;0.82;;;18.20;56.80;;;;;;5058860;28;20067;-74
2022/04/20 11:51:09;;;;;;;2.08;0.73;;;18.50;55.60;;;;;;5038415;28;20052;-74
2022/04/20 11:53:38;;;;;;;1.50;0.90;;;18.60;55.40;;;;;;5061698;28;20049;-74
2022/04/20 11:56:05;;;;;;;3.03;0.95;;;18.80;55.00;;;;;;5045177;28;20049;-74
2022/04/20 11:58:31;;;;;;;6.20;1.02;;;18.90;55.20;;;;;;5037077;28;20040;-74
2022/04/20 12:01:01;;;;;;;1.33;0.60;;;18.90;54.80;;;;;;5051925;28;20136;-75
2022/04/20 12:03:31;;;;;;;4.28;0.90;;;19.20;54.30;;;;;;5032787;28;20065;-75
2022/04/20 12:06:05;;;;;;;3.53;1.00;;;19.30;53.90;;;;;;5048393;28;20040;-75
2022/04/20 12:08:33;;;;;;;1.67;0.90;;;19.40;54.00;;;;;;5059155;28;20044;-76
2022/04/20 12:11:08;;;;;;;2.58;1.08;;;19.60;53.80;;;;;;5046793;28;20040;-76
2022/04/20 12:13:35;;;;;;;1.80;1.05;;;19.70;54.00;;;;;;5053296;28;20048;-75
2022/04/20 12:16:10;;;;;;;1.48;1.00;;;19.90;53.40;;;;;;5048146;28;20440;-76
2022/04/20 12:18:43;;;;;;;1.88;0.90;;;20.00;53.30;;;;;;5033881;28;20428;-75
2022/04/20 12:21:40;;;;;;;2.22;0.95;;;20.10;52.70;;;;;;5053800;28;20120;-75
2022/04/20 12:24:10;;;;;;;1.98;1.05;;;20.30;52.80;;;;;;5049587;28;20118;-75
2022/04/20 12:26:41;;;;;;;1.33;0.80;;;20.40;52.30;;;;;;5052920;28;20047;-74
2022/04/20 12:29:08;;;;;;;5.30;0.80;;;20.60;52.60;;;;;;5069059;28;20083;-75
2022/04/20 12:31:37;;;;;;;5.07;0.90;;;20.60;51.90;;;;;;5042547;28;20083;-75
2022/04/20 12:34:05;;;;;;;3.70;1.00;;;20.90;51.40;;;;;;5033976;28;20122;-75
2022/04/20 12:36:31;;;;;;;2.53;1.15;;;20.90;51.10;;;;;;5061073;28;20079;-75
2022/04/20 12:38:58;;;;;;;3.85;1.27;;;21.10;51.00;;;;;;5068653;28;20048;-76
2022/04/20 12:41:45;;;;;;;3.13;1.30;;;21.20;50.90;;;;;;5035389;28;20064;-76
2022/04/20 12:44:39;;;;;;;3.53;1.38;;;21.30;50.70;;;;;;5036587;28;20105;-74
2022/04/20 12:47:08;;;;;;;3.17;1.20;;;21.40;50.40;;;;;;5037554;28;20041;-74
2022/04/20 12:49:41;;;;;;;2.05;1.15;;;21.50;50.20;;;;;;5039789;28;20098;-75
2022/04/20 12:52:14;;;;;;;6.28;1.00;;;21.60;50.20;;;;;;5046081;28;20036;-74
2022/04/20 12:54:40;;;;;;;2.22;1.25;;;21.70;50.30;;;;;;5048203;28;20052;-74
2022/04/20 13:03:20;;;;;;;111.07;7.50;;;22.00;50.50;;;;;;4961346;28;20076;-74
2022/04/20 13:05:45;;;;;;;11.88;2.35;;;22.10;50.20;;;;;;4958799;28;20073;-74
2022/04/20 13:08:13;;;;;;;5.55;1.70;;;22.10;49.50;;;;;;5011249;28;20099;-74
2022/04/20 13:10:44;;;;;;;3.08;1.35;;;22.20;49.50;;;;;;5032265;28;20083;-74
2022/04/20 13:13:10;;;;;;;4.22;1.33;;;22.30;49.60;;;;;;5029368;28;20503;-74
2022/04/20 13:15:35;;;;;;;3.97;1.92;;;22.30;49.30;;;;;;5047868;28;20444;-74
2022/04/20 13:18:01;;;;;;;6.45;2.67;;;22.40;50.30;;;;;;5065055;28;20076;-74
2022/04/20 13:20:29;;;;;;;7.72;2.33;;;22.50;51.00;;;;;;5050893;28;20055;-75
2022/04/20 13:22:58;;;;;;;10.80;3.55;;;22.50;51.10;;;;;;5054744;28;20211;-75
2022/04/20 13:28:08;;;;;;;5.38;3.00;;;22.30;50.50;;;;;;5068002;28;20048;-75
2022/04/20 13:30:36;;;;;;;7.28;2.60;;;22.20;51.70;;;;;;5057997;28;20429;-75
2022/04/20 13:33:13;;;;;;;4.80;2.65;;;22.30;51.60;;;;;;5039271;28;20102;-74
2022/04/20 13:35:40;;;;;;;6.05;3.35;;;22.30;50.70;;;;;;5041021;28;20048;-74
2022/04/20 13:38:06;;;;;;;8.27;2.95;;;22.20;51.60;;;;;;5049548;28;20045;-74